Time;durP1;ratioP1;P1;durP2;ratioP2;P2;SDS_P1;SDS_P2;PMS_P1;PMS_P2;Temp;Humidity;BMP_temperature;BMP_pressure;BME280_temperature;BME280_humidity;BME280_pressure;Samples;Min_cycle;Max_cycle;Signal;HPM_P1;HPM_P2
2023/08/28 00:01:11;;;;;;;1.00;1.00;;;;;;;25.72;68.96;97080.53;5030512;28;20272;-27
2023/08/28 00:03:40;;;;;;;1.10;1.10;;;;;;;25.71;68.92;97073.69;5030651;28;20240;-31
2023/08/28 00:06:08;;;;;;;1.00;1.00;;;;;;;25.72;69.08;97069.41;5030740;28;20234;-27
2023/08/28 00:08:34;;;;;;;1.10;1.10;;;;;;;25.71;69.17;97068.53;5030923;28;20667;-29
2023/08/28 00:11:02;;;;;;;0.73;0.73;;;;;;;25.71;68.94;97073.69;5029109;28;20359;-27
2023/08/28 00:13:29;;;;;;;0.90;0.90;;;;;;;25.69;69.10;97064.25;5030328;28;20674;-27
2023/08/28 00:15:56;;;;;;;1.10;1.00;;;;;;;25.71;69.24;97067.66;5024408;28;20244;-27
2023/08/28 00:18:22;;;;;;;1.00;1.00;;;;;;;25.70;69.26;97058.22;5022579;28;20210;-27
2023/08/28 00:20:49;;;;;;;1.00;1.00;;;;;;;25.70;69.27;97064.25;5030807;28;20205;-28
2023/08/28 00:23:15;;;;;;;0.87;0.87;;;;;;;25.70;69.07;97053.97;5028244;28;20289;-27
2023/08/28 00:25:42;;;;;;;1.00;0.90;;;;;;;25.71;69.16;97053.09;5031085;28;20222;-27
2023/08/28 00:28:08;;;;;;;0.90;0.90;;;;;;;25.70;69.01;97043.66;5028347;28;20226;-27
2023/08/28 00:30:35;;;;;;;0.90;0.90;;;;;;;25.71;69.32;97041.94;5031140;28;20232;-27
2023/08/28 00:33:01;;;;;;;0.90;0.90;;;;;;;25.71;69.36;97040.22;5029593;28;20201;-28
2023/08/28 00:35:29;;;;;;;1.00;1.00;;;;;;;25.71;69.37;97039.34;5032539;28;20198;-27
2023/08/28 00:37:55;;;;;;;1.00;1.00;;;;;;;25.72;69.32;97030.81;5028972;28;20221;-27
2023/08/28 00:40:22;;;;;;;0.90;0.90;;;;;;;25.71;69.49;97029.06;5029955;28;20259;-33
2023/08/28 00:42:48;;;;;;;0.93;0.93;;;;;;;25.71;69.54;97023.91;5027335;28;20255;-27
2023/08/28 00:45:15;;;;;;;0.80;0.80;;;;;;;25.72;69.19;97025.66;5031100;28;20210;-27
2023/08/28 00:47:44;;;;;;;0.90;0.90;;;;;;;25.64;69.13;96999.00;5026878;28;20579;-27
2023/08/28 00:50:10;;;;;;;1.07;0.97;;;;;;;25.72;69.19;97017.94;5023993;28;20711;-30
2023/08/28 00:52:37;;;;;;;1.27;1.00;;;;;;;25.70;69.37;97002.47;5028512;28;20558;-27
2023/08/28 00:55:04;;;;;;;0.80;0.80;;;;;;;25.72;69.37;97008.47;5030517;28;20589;-27
2023/08/28 00:57:31;;;;;;;1.53;0.90;;;;;;;25.73;69.23;97009.34;5028106;28;20222;-27
2023/08/28 00:59:58;;;;;;;0.93;0.93;;;;;;;25.73;69.28;97012.78;5028587;28;20209;-27
2023/08/28 01:02:24;;;;;;;0.90;0.90;;;;;;;25.73;68.99;97009.34;5028644;28;20210;-27
2023/08/28 01:04:52;;;;;;;0.90;0.90;;;;;;;25.74;69.16;97024.78;5003559;28;20233;-32
2023/08/28 01:07:21;;;;;;;2.30;0.80;;;;;;;25.73;69.17;97020.50;5031825;28;20228;-27
2023/08/28 01:09:57;;;;;;;0.90;0.90;;;;;;;25.49;69.07;96978.34;5028839;28;20676;-27
2023/08/28 01:12:23;;;;;;;0.90;0.90;;;;;;;25.75;68.94;97018.78;5024933;28;20212;-28
2023/08/28 01:14:57;;;;;;;1.00;1.00;;;;;;;25.74;69.25;97017.06;5027503;28;20672;-36
2023/08/28 01:17:24;;;;;;;0.90;0.90;;;;;;;25.74;69.18;97024.78;5024209;28;20214;-29
2023/08/28 01:19:51;;;;;;;1.07;0.97;;;;;;;25.75;69.11;97026.50;5026459;28;20202;-27
2023/08/28 01:22:22;;;;;;;1.00;1.00;;;;;;;25.74;69.11;97026.50;5021459;28;20201;-27
2023/08/28 01:24:50;;;;;;;0.90;0.90;;;;;;;25.76;69.20;97035.09;5020271;28;20273;-27
2023/08/28 01:27:17;;;;;;;1.00;1.00;;;;;;;25.76;69.00;97032.53;5030661;28;20675;-27
2023/08/28 01:29:44;;;;;;;0.90;0.90;;;;;;;25.76;68.85;97029.94;5026004;28;20275;-30
2023/08/28 01:32:11;;;;;;;1.33;1.00;;;;;;;25.76;69.21;97033.41;5026588;28;20198;-27
2023/08/28 01:34:37;;;;;;;1.00;1.00;;;;;;;25.76;69.14;97028.25;5026825;28;20252;-27
2023/08/28 01:37:11;;;;;;;0.90;0.90;;;;;;;25.76;68.94;97033.41;5015039;28;20645;-31
2023/08/28 01:39:41;;;;;;;0.90;0.90;;;;;;;25.77;69.02;97042.84;5023386;28;20202;-27
2023/08/28 01:42:08;;;;;;;0.90;0.90;;;;;;;25.77;68.78;97041.97;5008203;28;20268;-30
2023/08/28 01:44:34;;;;;;;0.80;0.80;;;;;;;25.74;69.16;97037.66;5015625;28;20716;-27
2023/08/28 01:47:01;;;;;;;0.80;0.80;;;;;;;25.77;68.86;97049.69;5021632;28;20257;-34
2023/08/28 01:49:29;;;;;;;0.70;0.70;;;;;;;25.78;69.00;97046.28;5036450;28;20197;-27
2023/08/28 01:51:56;;;;;;;0.70;0.70;;;;;;;25.78;68.89;97052.25;5032118;28;20193;-27
2023/08/28 01:54:22;;;;;;;0.90;0.90;;;;;;;25.78;68.92;97043.69;5029114;28;20199;-28
2023/08/28 01:56:49;;;;;;;1.10;0.93;;;;;;;25.79;69.13;97047.97;5026266;28;20213;-36
2023/08/28 01:59:16;;;;;;;0.80;0.80;;;;;;;25.80;69.11;97054.84;5029738;28;20252;-28
2023/08/28 02:01:42;;;;;;;0.90;0.90;;;;;;;25.80;68.97;97058.28;5027426;28;20277;-27
2023/08/28 02:04:09;;;;;;;0.90;0.90;;;;;;;25.78;68.94;97051.41;5024134;28;20261;-27
2023/08/28 02:06:35;;;;;;;0.93;0.93;;;;;;;25.80;69.20;97044.53;5027893;28;20744;-27
2023/08/28 02:09:02;;;;;;;1.00;1.00;;;;;;;25.79;68.81;97043.72;5026605;28;20206;-29
2023/08/28 02:11:28;;;;;;;0.90;0.90;;;;;;;25.79;69.12;97035.97;5031968;28;20201;-27
2023/08/28 02:13:55;;;;;;;0.80;0.80;;;;;;;25.78;69.15;97029.09;5030943;28;20271;-27
2023/08/28 02:16:21;;;;;;;2.40;0.90;;;;;;;25.79;68.79;97022.25;5021472;28;20292;-29
2023/08/28 02:18:48;;;;;;;1.00;1.00;;;;;;;25.80;68.81;97016.22;5023305;28;20530;-28
2023/08/28 02:21:15;;;;;;;0.90;0.90;;;;;;;25.78;68.76;97000.78;5024622;28;20206;-28
2023/08/28 02:23:41;;;;;;;0.93;0.93;;;;;;;25.81;68.80;97005.09;5032031;28;20268;-29
2023/08/28 02:26:08;;;;;;;0.83;0.83;;;;;;;25.80;68.88;97004.22;5022188;28;20221;-27
2023/08/28 02:28:34;;;;;;;0.90;0.90;;;;;;;25.72;68.76;96987.88;5027186;28;20572;-31
2023/08/28 02:31:03;;;;;;;1.00;1.00;;;;;;;25.80;68.83;96999.09;5032131;28;20197;-27
2023/08/28 02:33:30;;;;;;;0.80;0.80;;;;;;;25.81;69.04;96987.91;5025180;28;20216;-28
2023/08/28 02:35:59;;;;;;;2.63;0.90;;;;;;;25.74;68.94;96969.88;5024502;28;20639;-27
2023/08/28 02:38:25;;;;;;;0.90;0.90;;;;;;;25.79;68.88;96976.78;5018487;28;20289;-29
2023/08/28 02:40:52;;;;;;;0.90;0.90;;;;;;;25.81;68.80;96984.50;5023263;28;20202;-27
2023/08/28 02:43:18;;;;;;;0.85;0.85;;;;;;;25.80;68.82;96978.50;5023208;28;20205;-27
2023/08/28 02:45:45;;;;;;;1.00;1.00;;;;;;;25.81;68.66;96977.63;5022880;28;20636;-29
2023/08/28 02:48:12;;;;;;;0.80;0.80;;;;;;;25.80;68.84;96968.19;5025453;28;20641;-27
2023/08/28 02:50:38;;;;;;;0.90;0.90;;;;;;;25.81;68.71;96962.19;5016102;28;20202;-27
2023/08/28 02:53:05;;;;;;;1.00;1.00;;;;;;;25.82;68.56;96957.91;5031398;28;20291;-27
2023/08/28 02:55:42;;;;;;;0.97;0.97;;;;;;;25.81;68.87;96951.03;5025403;28;20644;-27
2023/08/28 02:58:09;;;;;;;1.00;1.00;;;;;;;25.81;68.74;96951.88;5024635;28;20240;-28
2023/08/28 03:00:37;;;;;;;0.90;0.90;;;;;;;25.81;68.90;96951.88;5024758;28;20285;-29
2023/08/28 03:03:04;;;;;;;0.80;0.80;;;;;;;25.81;68.75;96944.16;5023789;28;20292;-29
2023/08/28 03:05:31;;;;;;;0.87;0.87;;;;;;;25.82;68.52;96943.31;5027772;28;20205;-27
2023/08/28 03:07:58;;;;;;;0.80;0.80;;;;;;;25.82;68.60;96945.91;5025426;28;20267;-27
2023/08/28 03:10:24;;;;;;;1.20;1.10;;;;;;;25.82;68.64;96947.59;5031088;28;20267;-27
2023/08/28 03:12:51;;;;;;;0.70;0.70;;;;;;;25.83;68.45;96947.59;5031343;28;20206;-27
2023/08/28 03:15:18;;;;;;;0.97;0.97;;;;;;;25.83;68.71;96944.16;5029760;28;20255;-27
2023/08/28 03:17:44;;;;;;;0.90;0.90;;;;;;;25.82;68.77;96935.59;5026908;28;20218;-27
2023/08/28 03:20:11;;;;;;;0.90;0.90;;;;;;;25.82;68.76;96938.19;5028160;28;20208;-27
2023/08/28 03:22:38;;;;;;;1.07;1.00;;;;;;;25.82;68.57;96932.16;5030731;28;20267;-27
2023/08/28 03:25:05;;;;;;;0.90;0.90;;;;;;;25.82;68.57;96933.03;5023653;28;20288;-30
2023/08/28 03:27:32;;;;;;;0.70;0.70;;;;;;;25.82;68.58;96935.59;5021616;28;20724;-27
2023/08/28 03:29:58;;;;;;;0.90;0.90;;;;;;;25.83;68.76;96942.47;5030977;28;20201;-27
2023/08/28 03:32:25;;;;;;;0.90;0.90;;;;;;;25.83;68.83;96941.59;5026758;28;20301;-27
2023/08/28 03:34:51;;;;;;;0.80;0.80;;;;;;;25.83;68.55;96946.72;5024571;28;20198;-28
2023/08/28 03:37:18;;;;;;;1.00;1.00;;;;;;;25.82;68.85;96943.31;5028273;28;20221;-28
2023/08/28 03:39:44;;;;;;;0.70;0.70;;;;;;;25.78;68.68;96944.16;5030717;28;20560;-27
2023/08/28 03:42:11;;;;;;;1.00;1.00;;;;;;;25.82;68.82;96948.47;5028612;28;20612;-27
2023/08/28 03:44:38;;;;;;;0.80;0.80;;;;;;;25.83;68.49;96957.03;5030745;28;20648;-30
2023/08/28 03:47:04;;;;;;;0.73;0.73;;;;;;;25.83;68.71;96952.75;5023887;28;20226;-27
2023/08/28 03:49:31;;;;;;;0.90;0.90;;;;;;;25.83;68.75;96955.31;5023004;28;20202;-27
2023/08/28 03:51:59;;;;;;;0.90;0.90;;;;;;;25.84;68.68;96958.78;5027424;28;20216;-27
2023/08/28 03:54:27;;;;;;;0.90;0.90;;;;;;;25.84;68.54;96966.50;5021669;28;20198;-27
2023/08/28 03:56:54;;;;;;;0.77;0.77;;;;;;;25.84;68.58;96971.66;5025244;28;20256;-27
2023/08/28 03:59:21;;;;;;;0.70;0.70;;;;;;;25.84;68.60;96969.91;5028970;28;20209;-27
2023/08/28 04:01:48;;;;;;;0.90;0.90;;;;;;;25.84;68.58;96977.63;5025101;28;20286;-27
2023/08/28 04:04:16;;;;;;;0.90;0.90;;;;;;;25.84;68.61;96975.06;5030826;28;20615;-28
2023/08/28 04:06:43;;;;;;;0.90;0.90;;;;;;;25.84;68.84;96972.47;5032190;28;20221;-29
2023/08/28 04:09:09;;;;;;;0.90;0.90;;;;;;;25.83;68.81;96969.91;5033409;28;20288;-27
2023/08/28 04:11:36;;;;;;;0.90;0.90;;;;;;;25.84;68.78;96971.66;5034628;28;20291;-27
2023/08/28 04:14:02;;;;;;;3.10;1.13;;;;;;;25.82;68.52;96963.91;5033149;28;20198;-27
2023/08/28 04:16:29;;;;;;;0.80;0.80;;;;;;;25.82;68.18;96958.78;5033417;28;20241;-29
2023/08/28 04:18:56;;;;;;;1.63;1.30;;;;;;;25.83;68.33;96965.63;5034018;28;20216;-27
2023/08/28 04:21:22;;;;;;;1.20;1.10;;;;;;;25.84;68.46;96961.34;5030732;28;20707;-28
2023/08/28 04:23:49;;;;;;;0.90;0.90;;;;;;;25.82;68.47;96952.75;5027490;28;20260;-27
2023/08/28 04:26:15;;;;;;;0.93;0.90;;;;;;;25.83;68.60;96947.59;5022865;28;20233;-30
2023/08/28 04:28:42;;;;;;;1.30;1.20;;;;;;;25.83;68.75;96942.47;5028598;28;20218;-27
2023/08/28 04:31:09;;;;;;;2.00;1.77;;;;;;;25.81;67.17;96943.31;5034880;28;20236;-27
2023/08/28 04:33:36;;;;;;;2.80;2.23;;;;;;;25.79;66.63;96938.16;5032615;28;20289;-29
2023/08/28 04:36:03;;;;;;;2.33;2.13;;;;;;;25.78;66.72;96935.59;5031870;28;20197;-29
2023/08/28 04:38:29;;;;;;;2.43;2.00;;;;;;;25.76;66.74;96935.56;5027323;28;20224;-27
2023/08/28 04:40:56;;;;;;;2.70;2.10;;;;;;;25.74;66.65;96937.28;5028824;28;20660;-33
2023/08/28 04:43:23;;;;;;;3.33;1.80;;;;;;;25.72;67.01;96944.13;5032404;28;20202;-27
2023/08/28 04:45:49;;;;;;;2.63;2.00;;;;;;;25.70;66.32;96948.44;5031218;28;20208;-27
2023/08/28 04:48:17;;;;;;;4.40;2.20;;;;;;;25.70;66.21;96951.00;5029966;28;20601;-27
2023/08/28 04:50:44;;;;;;;2.70;2.00;;;;;;;25.68;66.33;96941.53;5021774;28;20209;-27
2023/08/28 04:53:10;;;;;;;2.30;1.93;;;;;;;25.66;66.74;96925.22;5033616;28;20289;-27
2023/08/28 04:55:38;;;;;;;7.13;2.27;;;;;;;25.63;65.01;96926.06;5030450;28;20296;-29
2023/08/28 04:58:05;;;;;;;4.43;1.90;;;;;;;25.62;65.05;96919.22;5034127;28;20721;-27
2023/08/28 05:00:32;;;;;;;2.47;2.27;;;;;;;25.61;64.88;96937.22;5026492;28;20284;-27
2023/08/28 05:02:58;;;;;;;3.40;2.23;;;;;;;25.59;64.42;96939.78;5028613;28;20699;-27
2023/08/28 05:05:25;;;;;;;4.60;2.40;;;;;;;25.55;63.97;96939.78;5022077;28;20206;-29
2023/08/28 05:07:52;;;;;;;3.73;2.13;;;;;;;25.55;63.99;96955.22;5025602;28;20226;-27
2023/08/28 05:10:18;;;;;;;2.43;1.90;;;;;;;25.52;64.43;96948.31;5033987;28;20263;-27
2023/08/28 05:12:45;;;;;;;4.47;2.60;;;;;;;25.52;64.40;96937.19;5030020;28;20208;-27
2023/08/28 05:15:12;;;;;;;4.67;2.47;;;;;;;25.51;64.18;96927.72;5033184;28;20210;-30
2023/08/28 05:17:39;;;;;;;3.00;2.20;;;;;;;25.42;63.88;96900.25;5023956;28;20598;-36
2023/08/28 05:20:06;;;;;;;3.00;2.10;;;;;;;25.47;63.86;96913.16;5024861;28;20288;-27
2023/08/28 05:22:33;;;;;;;2.47;2.20;;;;;;;25.51;64.76;96926.03;5020661;28;20202;-27
2023/08/28 05:24:59;;;;;;;4.13;2.00;;;;;;;25.51;65.50;96925.16;5033071;28;20198;-27
2023/08/28 05:27:26;;;;;;;7.70;2.40;;;;;;;25.51;66.02;96920.88;5032369;28;20233;-27
2023/08/28 05:29:52;;;;;;;4.70;2.10;;;;;;;25.51;66.80;96908.00;5031481;28;20198;-27
2023/08/28 05:32:19;;;;;;;1.90;1.70;;;;;;;25.51;67.27;96900.28;5025565;28;20248;-27
2023/08/28 05:34:46;;;;;;;1.90;1.80;;;;;;;25.53;67.27;96902.88;5028420;28;20202;-27
2023/08/28 05:37:15;;;;;;;2.10;1.90;;;;;;;25.53;67.14;96902.88;5033674;28;20213;-35
2023/08/28 05:39:43;;;;;;;3.47;1.80;;;;;;;25.50;67.53;96888.28;5023580;28;20694;-27
2023/08/28 05:42:09;;;;;;;2.33;2.00;;;;;;;25.51;67.46;96897.72;5033028;28;20229;-27
2023/08/28 05:44:36;;;;;;;3.50;2.00;;;;;;;25.52;67.58;96893.44;5029227;28;20205;-29
2023/08/28 05:47:03;;;;;;;2.50;2.10;;;;;;;25.49;67.64;96894.28;5028919;28;20221;-27
2023/08/28 05:49:29;;;;;;;2.23;1.80;;;;;;;25.49;67.87;96886.56;5023971;28;20198;-27
2023/08/28 05:51:56;;;;;;;7.37;2.20;;;;;;;25.48;66.28;96881.41;5023740;28;20233;-27
2023/08/28 05:54:22;;;;;;;4.53;2.40;;;;;;;25.45;64.27;96868.53;5029695;28;20264;-27
2023/08/28 05:56:49;;;;;;;3.53;2.30;;;;;;;25.45;64.74;96860.81;5029548;28;20249;-27
2023/08/28 05:59:15;;;;;;;4.97;2.50;;;;;;;25.42;63.90;96853.09;5028539;28;20210;-29
2023/08/28 06:01:42;;;;;;;5.87;2.77;;;;;;;25.38;63.66;96843.66;5031852;28;20248;-28
2023/08/28 06:04:09;;;;;;;5.30;2.50;;;;;;;25.38;64.19;96859.06;5029528;28;20236;-28
2023/08/28 06:06:37;;;;;;;2.57;2.30;;;;;;;25.38;64.97;96849.66;5028089;28;20226;-27
2023/08/28 06:09:04;;;;;;;3.47;2.10;;;;;;;25.37;65.91;96845.34;5024082;28;20318;-27
2023/08/28 06:11:31;;;;;;;2.30;2.10;;;;;;;25.36;65.83;96835.91;5032137;28;20210;-27
2023/08/28 06:13:58;;;;;;;2.57;2.10;;;;;;;25.36;66.80;96846.22;5024842;28;20237;-30
2023/08/28 06:16:25;;;;;;;3.30;2.33;;;;;;;25.37;66.63;96847.09;5032477;28;20268;-27
2023/08/28 06:18:52;;;;;;;3.80;2.17;;;;;;;25.37;67.08;96839.38;5024189;28;20196;-27
2023/08/28 06:21:19;;;;;;;2.80;2.10;;;;;;;25.36;66.91;96828.22;5021201;28;20606;-27
2023/08/28 06:23:46;;;;;;;4.43;2.20;;;;;;;25.36;67.20;96823.06;5029989;28;20643;-27
2023/08/28 06:26:12;;;;;;;3.30;1.97;;;;;;;25.37;67.37;96811.06;5028098;28;20295;-27
2023/08/28 06:28:39;;;;;;;2.20;2.00;;;;;;;25.36;67.30;96794.78;5028388;28;20267;-27
2023/08/28 06:31:06;;;;;;;2.20;1.90;;;;;;;25.37;67.75;96785.34;5026725;28;20194;-27
2023/08/28 06:33:32;;;;;;;2.57;1.80;;;;;;;25.37;67.52;96773.31;5030863;28;20197;-27
2023/08/28 06:35:59;;;;;;;2.97;2.00;;;;;;;25.38;67.88;96756.19;5028034;28;20233;-30
2023/08/28 06:38:26;;;;;;;5.93;2.50;;;;;;;25.38;68.30;96751.91;5023510;28;20209;-28
2023/08/28 06:40:52;;;;;;;6.13;2.47;;;;;;;25.38;68.27;96746.75;5021569;28;20202;-33
2023/08/28 06:43:19;;;;;;;6.00;2.13;;;;;;;25.39;68.28;96752.75;5030037;28;20256;-31
2023/08/28 06:45:46;;;;;;;4.50;2.20;;;;;;;25.39;68.25;96763.03;5028085;28;20212;-27
2023/08/28 06:48:12;;;;;;;3.50;1.93;;;;;;;25.39;68.22;96778.47;5025333;28;20295;-28
2023/08/28 06:50:39;;;;;;;3.70;1.93;;;;;;;25.38;68.55;96790.50;5018263;28;20206;-27
2023/08/28 06:53:06;;;;;;;2.60;1.80;;;;;;;25.39;68.38;96796.47;5028875;28;20201;-29
2023/08/28 06:55:32;;;;;;;3.03;2.00;;;;;;;25.39;68.46;96802.50;5027173;28;20271;-27
2023/08/28 06:57:59;;;;;;;3.60;1.90;;;;;;;25.39;68.84;96812.78;5025562;28;20224;-28
2023/08/28 07:00:25;;;;;;;7.97;2.00;;;;;;;25.40;68.63;96813.66;5024690;28;20237;-29
2023/08/28 07:02:52;;;;;;;2.07;1.57;;;;;;;25.39;68.74;96805.06;5020749;28;20213;-30
2023/08/28 07:05:20;;;;;;;3.53;1.73;;;;;;;25.33;68.70;96797.34;5028555;28;20663;-29
2023/08/28 07:07:47;;;;;;;3.33;2.03;;;;;;;25.40;68.94;96823.94;5015342;28;20714;-35
2023/08/28 07:10:14;;;;;;;2.10;1.90;;;;;;;25.39;68.94;96827.34;5019024;28;20217;-30
2023/08/28 07:12:40;;;;;;;3.37;1.90;;;;;;;25.39;68.48;96837.63;5023069;28;20362;-27
2023/08/28 07:15:10;;;;;;;2.83;2.00;;;;;;;25.40;68.53;96832.50;5021700;28;20213;-33
2023/08/28 07:17:37;;;;;;;2.63;1.73;;;;;;;25.36;68.83;96811.91;5023479;28;20225;-31
2023/08/28 07:20:07;;;;;;;2.90;1.70;;;;;;;25.40;68.61;96822.22;5018113;28;20286;-27
2023/08/28 07:22:34;;;;;;;2.53;1.70;;;;;;;25.41;68.65;96817.94;5020997;28;20665;-30
2023/08/28 07:25:01;;;;;;;1.90;1.70;;;;;;;25.39;68.59;96799.91;5022460;28;20731;-31
2023/08/28 07:27:27;;;;;;;2.50;1.57;;;;;;;25.41;68.82;96803.38;5026845;28;20233;-28
2023/08/28 07:29:55;;;;;;;2.33;1.73;;;;;;;25.43;68.39;96803.38;5028587;28;20264;-27
2023/08/28 07:32:21;;;;;;;4.57;2.00;;;;;;;25.44;68.56;96810.22;5027904;28;20210;-27
2023/08/28 07:34:48;;;;;;;1.97;1.70;;;;;;;25.43;68.87;96806.78;5026834;28;20209;-28
2023/08/28 07:37:14;;;;;;;4.50;1.90;;;;;;;25.40;68.56;96795.66;5028185;28;20612;-30
2023/08/28 07:39:41;;;;;;;2.00;1.60;;;;;;;25.43;68.82;96809.34;5026961;28;20201;-27
2023/08/28 07:42:07;;;;;;;2.23;1.43;;;;;;;25.44;68.86;96808.53;5028742;28;20293;-27
2023/08/28 07:44:34;;;;;;;2.33;1.80;;;;;;;25.39;68.62;96794.78;5028657;28;20209;-32
2023/08/28 07:47:02;;;;;;;1.70;1.60;;;;;;;25.43;68.82;96790.50;5025524;28;20650;-27
2023/08/28 07:49:28;;;;;;;2.90;1.77;;;;;;;25.42;68.96;96781.06;5028231;28;20228;-28
2023/08/28 07:51:55;;;;;;;1.60;1.50;;;;;;;25.43;69.17;96800.78;5028019;28;20209;-29
2023/08/28 07:54:21;;;;;;;1.70;1.60;;;;;;;25.42;69.32;96806.78;5021666;28;20707;-29
2023/08/28 07:56:48;;;;;;;1.70;1.60;;;;;;;25.41;68.97;96810.22;5026392;28;20331;-27
2023/08/28 07:59:15;;;;;;;2.63;1.70;;;;;;;25.41;69.39;96823.06;5027904;28;20209;-28
2023/08/28 08:01:41;;;;;;;2.23;1.70;;;;;;;25.40;69.55;96823.94;5027545;28;20209;-30
2023/08/28 08:04:08;;;;;;;3.90;1.80;;;;;;;25.38;69.21;96813.66;5028783;28;20408;-27
2023/08/28 08:06:35;;;;;;;1.97;1.60;;;;;;;25.38;69.17;96795.63;5028240;28;20248;-30
2023/08/28 08:09:01;;;;;;;1.70;1.60;;;;;;;25.37;69.53;96791.31;5026091;28;20572;-27
2023/08/28 08:11:28;;;;;;;2.07;1.40;;;;;;;25.30;69.50;96779.28;5025811;28;20633;-30
2023/08/28 08:13:54;;;;;;;1.93;1.50;;;;;;;25.37;69.35;96778.47;5027922;28;20728;-27
2023/08/28 08:16:21;;;;;;;2.73;1.60;;;;;;;25.38;69.55;96782.78;5028169;28;20324;-28
2023/08/28 08:18:48;;;;;;;4.00;1.70;;;;;;;25.37;69.41;96786.19;5027674;28;20225;-29
2023/08/28 08:21:15;;;;;;;2.43;1.83;;;;;;;25.37;69.37;96793.91;5023704;28;20202;-29
2023/08/28 08:23:42;;;;;;;1.60;1.50;;;;;;;25.38;69.32;96802.50;5026969;28;20230;-28
2023/08/28 08:26:08;;;;;;;2.00;1.47;;;;;;;25.38;69.60;96802.50;5028280;28;20283;-27
2023/08/28 08:28:35;;;;;;;3.47;1.77;;;;;;;25.37;69.65;96798.22;5026089;28;20665;-29
2023/08/28 08:31:01;;;;;;;1.73;1.63;;;;;;;25.39;69.39;96801.63;5027652;28;20214;-29
2023/08/28 08:33:28;;;;;;;1.87;1.50;;;;;;;25.38;69.75;96805.94;5026374;28;20352;-30
2023/08/28 08:35:54;;;;;;;1.53;1.43;;;;;;;25.36;70.02;96810.19;5026489;28;20559;-27
2023/08/28 08:38:21;;;;;;;1.50;1.40;;;;;;;25.37;69.53;96809.34;5025037;28;20751;-32
2023/08/28 08:40:50;;;;;;;2.13;1.40;;;;;;;25.37;69.38;96811.06;5025992;28;20259;-27
2023/08/28 08:43:17;;;;;;;1.67;1.57;;;;;;;25.37;69.68;96819.63;5027962;28;20233;-27
2023/08/28 08:45:43;;;;;;;1.50;1.40;;;;;;;25.35;69.83;96816.22;5021472;28;20267;-27
2023/08/28 08:48:10;;;;;;;2.33;1.80;;;;;;;25.29;70.13;96811.00;5026614;28;20647;-31
2023/08/28 08:50:39;;;;;;;1.70;1.50;;;;;;;25.37;70.06;96829.91;5027268;28;20205;-28
2023/08/28 08:53:12;;;;;;;1.97;1.50;;;;;;;25.37;69.99;96834.22;5031423;28;20223;-27
2023/08/28 08:55:45;;;;;;;1.60;1.50;;;;;;;25.38;70.07;96838.50;5014455;28;20645;-27
2023/08/28 08:58:14;;;;;;;1.80;1.50;;;;;;;25.35;70.02;96836.78;5028015;28;20672;-28
2023/08/28 09:00:43;;;;;;;1.67;1.50;;;;;;;25.38;69.84;96844.53;5030679;28;20296;-31
2023/08/28 09:03:09;;;;;;;1.70;1.60;;;;;;;25.36;69.66;96845.34;5024666;28;20263;-27
2023/08/28 09:05:36;;;;;;;1.40;1.30;;;;;;;25.38;69.60;96833.34;5029671;28;20694;-30
2023/08/28 09:08:04;;;;;;;1.50;1.40;;;;;;;25.36;70.10;96835.06;5027026;28;20225;-27
2023/08/28 09:10:32;;;;;;;1.50;1.40;;;;;;;25.38;69.61;96843.66;5030024;28;20214;-31
2023/08/28 09:12:59;;;;;;;1.77;1.50;;;;;;;25.37;70.02;96850.50;5030400;28;20205;-28
2023/08/28 09:15:25;;;;;;;2.03;1.53;;;;;;;25.39;69.57;96861.66;5029285;28;20221;-34
2023/08/28 09:17:52;;;;;;;1.90;1.50;;;;;;;25.40;69.59;96859.97;5030693;28;20725;-29
2023/08/28 09:20:21;;;;;;;2.00;1.40;;;;;;;25.40;70.00;96854.81;5029641;28;20302;-27
2023/08/28 09:22:51;;;;;;;1.40;1.30;;;;;;;25.41;69.66;96859.09;5027530;28;20208;-31
2023/08/28 09:25:21;;;;;;;1.70;1.60;;;;;;;25.41;69.58;96856.53;5029791;28;20206;-30
2023/08/28 09:27:54;;;;;;;1.50;1.40;;;;;;;25.41;69.45;96852.25;5028324;28;20317;-33
2023/08/28 09:30:37;;;;;;;1.50;1.40;;;;;;;25.42;69.51;96864.25;5028031;28;20567;-28
2023/08/28 09:33:07;;;;;;;1.73;1.43;;;;;;;25.42;69.80;96863.38;5028292;28;20304;-28
2023/08/28 09:35:44;;;;;;;1.47;1.37;;;;;;;25.43;69.60;96872.84;5027375;28;20778;-27
2023/08/28 09:38:10;;;;;;;3.20;1.53;;;;;;;25.39;69.56;96866.81;5028898;28;20663;-31
2023/08/28 09:40:39;;;;;;;1.40;1.30;;;;;;;25.43;69.54;96865.13;5027177;28;20288;-27
2023/08/28 09:43:31;;;;;;;1.37;1.27;;;;;;;25.42;69.86;96851.38;5028109;28;20213;-27
2023/08/28 09:45:59;;;;;;;1.40;1.30;;;;;;;25.42;69.65;96835.06;5022823;28;20237;-31
2023/08/28 09:48:28;;;;;;;1.47;1.37;;;;;;;25.41;69.69;96812.78;5027884;28;20692;-30
2023/08/28 09:50:55;;;;;;;1.60;1.40;;;;;;;25.21;70.00;96744.94;5026239;28;20673;-31
2023/08/28 09:53:28;;;;;;;1.57;1.40;;;;;;;25.38;69.98;96757.06;5026738;28;20296;-27
2023/08/28 09:55:55;;;;;;;1.47;1.37;;;;;;;25.38;70.26;96740.75;5026685;28;20220;-33
2023/08/28 09:58:25;;;;;;;1.73;1.53;;;;;;;25.37;70.19;96741.63;5009762;28;20756;-27
2023/08/28 10:00:53;;;;;;;1.40;1.30;;;;;;;25.37;70.19;96733.91;5026947;28;20236;-29
2023/08/28 10:03:21;;;;;;;1.53;1.43;;;;;;;25.36;70.34;96720.16;5027981;28;20714;-31
2023/08/28 10:05:48;;;;;;;1.40;1.30;;;;;;;25.36;70.27;96709.00;5028831;28;20213;-27
2023/08/28 10:08:15;;;;;;;1.43;1.33;;;;;;;25.33;70.23;96689.28;5028539;28;20221;-27
2023/08/28 10:10:45;;;;;;;1.30;1.20;;;;;;;25.36;69.99;96678.16;5027672;28;20257;-27
2023/08/28 10:13:14;;;;;;;1.30;1.20;;;;;;;25.34;70.58;96674.72;5029670;28;20267;-34
2023/08/28 10:16:11;;;;;;;1.57;1.47;;;;;;;25.35;70.25;96691.88;5024066;28;20614;-27
2023/08/28 10:18:39;;;;;;;1.40;1.30;;;;;;;25.35;70.42;96704.72;5026050;28;20225;-31
2023/08/28 10:21:06;;;;;;;1.40;1.30;;;;;;;25.34;70.41;96719.28;5029332;28;20276;-27
2023/08/28 10:23:36;;;;;;;1.40;1.30;;;;;;;25.34;70.34;96703.88;5029880;28;20762;-28
2023/08/28 10:26:02;;;;;;;1.40;1.30;;;;;;;25.35;70.38;96673.88;5012131;28;20237;-40
2023/08/28 10:28:29;;;;;;;1.20;1.10;;;;;;;25.35;70.32;96686.72;5028028;28;20253;-27
2023/08/28 10:30:56;;;;;;;1.40;1.30;;;;;;;25.35;70.71;96689.31;5029761;28;20206;-27
2023/08/28 10:33:22;;;;;;;1.40;1.30;;;;;;;25.33;70.38;96680.72;5029388;28;20210;-35
2023/08/28 10:35:54;;;;;;;1.30;1.20;;;;;;;25.35;70.78;96672.16;5026001;28;20237;-29
2023/08/28 10:38:21;;;;;;;1.43;1.33;;;;;;;25.35;70.34;96673.88;5024254;28;20217;-28
2023/08/28 10:40:52;;;;;;;1.30;1.20;;;;;;;25.35;70.42;96692.75;5028416;28;20197;-28
2023/08/28 10:43:21;;;;;;;1.20;1.20;;;;;;;25.34;70.20;96695.31;5029531;28;20597;-27
2023/08/28 10:45:48;;;;;;;1.33;1.23;;;;;;;25.36;70.40;96702.16;5025217;28;20299;-27
2023/08/28 10:48:15;;;;;;;1.30;1.20;;;;;;;25.36;70.60;96698.72;5008404;28;20320;-28
2023/08/28 10:50:42;;;;;;;1.73;1.43;;;;;;;25.34;70.63;96692.75;5028827;28;20648;-28
2023/08/28 10:53:15;;;;;;;1.57;1.47;;;;;;;25.37;70.30;96696.16;5028779;28;20715;-27
2023/08/28 10:55:59;;;;;;;1.43;1.33;;;;;;;25.36;70.29;96691.00;5029276;28;20288;-27
2023/08/28 10:58:29;;;;;;;2.10;1.40;;;;;;;25.36;70.22;96694.44;5028647;28;20292;-28
2023/08/28 11:01:17;;;;;;;1.20;1.10;;;;;;;25.35;70.41;96690.16;5027978;28;20228;-32
2023/08/28 11:03:50;;;;;;;1.27;1.20;;;;;;;25.36;70.16;96693.56;5023830;28;20202;-30
2023/08/28 11:06:49;;;;;;;1.63;1.27;;;;;;;25.36;69.98;96702.16;5023113;28;20229;-30
2023/08/28 11:09:42;;;;;;;3.60;1.27;;;;;;;25.37;70.15;96675.56;4972982;28;20260;-28
2023/08/28 11:12:11;;;;;;;1.70;1.53;;;;;;;25.36;70.29;96668.72;5021625;28;20651;-28
2023/08/28 11:14:39;;;;;;;2.00;1.40;;;;;;;25.36;70.11;96661.00;5028656;28;20202;-27
2023/08/28 11:17:20;;;;;;;1.47;1.20;;;;;;;25.39;70.12;96662.72;5027828;28;20255;-29
2023/08/28 11:19:52;;;;;;;2.50;1.30;;;;;;;25.41;69.90;96650.72;5026849;28;20201;-31
2023/08/28 11:22:32;;;;;;;1.30;1.20;;;;;;;25.41;69.62;96654.16;5028457;28;20228;-30
2023/08/28 11:24:59;;;;;;;1.50;1.30;;;;;;;25.41;69.63;96685.03;5025922;28;20193;-33
2023/08/28 11:27:35;;;;;;;1.40;1.30;;;;;;;25.43;69.60;96685.03;5028569;28;20233;-27
2023/08/28 11:30:04;;;;;;;1.80;1.30;;;;;;;25.42;70.19;96645.56;5028255;28;20644;-32
2023/08/28 11:32:35;;;;;;;3.60;1.57;;;;;;;25.42;69.95;96648.16;5029037;28;20201;-30
2023/08/28 11:35:04;;;;;;;1.33;1.23;;;;;;;25.42;69.73;96655.00;5024210;28;20206;-32
2023/08/28 11:37:32;;;;;;;1.40;1.30;;;;;;;25.42;70.21;96642.13;5029354;28;20214;-27